Denison, Texas
Current Conditions -  °F | °C
As of 10:35 AM on Saturday 20 Dec 2014 (Local Time) from KGYI Reporting Station
Haze Haze  
Wind Chill: 44°   Ceiling: 700
Heat Index: 44°   Visibility: 4mi
Dew Point: 43°   Wind: 0mph
Humidity: 97%   Direction: NA
Pressure: 30.28"   Gusts: NA
Location:  33.76°N, 96.54°W
Report Text: KGYI 201635Z AUTO 00000KT 4SM BR OVC007 07/06 A3028 RMK AO2 T00650060
Loading
Personal Weather Stations






























Interactive Weather Map New forecast layout! Learn more

10-Day Weather Forecast

Advertisements
Track Severe Weather on mobile